createdAt,value
2018-08-22T00:00:04.092Z,1.10
2018-08-22T00:02:31.750Z,1.20
2018-08-22T00:04:59.348Z,1.10
2018-08-22T00:07:26.939Z,1.27
2018-08-22T00:09:54.670Z,1.10
2018-08-22T00:12:22.234Z,1.57
2018-08-22T00:14:49.863Z,1.70
2018-08-22T00:17:17.490Z,1.80
2018-08-22T00:19:45.039Z,1.80
2018-08-22T00:22:12.620Z,1.97
2018-08-22T00:24:40.309Z,2.30
2018-08-22T00:27:07.988Z,2.13
2018-08-22T00:29:35.552Z,2.83
2018-08-22T00:32:03.428Z,2.03
2018-08-22T00:34:31.072Z,2.50
2018-08-22T00:36:58.595Z,1.87
2018-08-22T00:39:26.271Z,2.47
2018-08-22T00:41:54.319Z,1.77
2018-08-22T00:44:21.904Z,1.93
2018-08-22T00:46:49.132Z,1.70
2018-08-22T00:49:17.805Z,2.00
2018-08-22T00:51:45.437Z,1.70
2018-08-22T00:54:12.959Z,1.90
2018-08-22T00:56:40.724Z,1.70
2018-08-22T00:59:08.284Z,1.73
2018-08-22T01:01:35.871Z,1.30
2018-08-22T01:04:03.796Z,1.30
2018-08-22T01:06:31.915Z,1.60
2018-08-22T01:08:59.425Z,1.53
2018-08-22T01:11:27.187Z,1.00
2018-08-22T01:13:55.455Z,1.70
2018-08-22T01:16:23.025Z,1.53
2018-08-22T01:18:50.599Z,1.57
2018-08-22T01:21:18.703Z,1.53
2018-08-22T01:23:46.300Z,1.60
2018-08-22T01:26:13.839Z,1.60
2018-08-22T01:28:41.706Z,1.70
2018-08-22T01:31:09.256Z,1.47
2018-08-22T01:33:36.806Z,1.80
2018-08-22T01:36:04.683Z,1.60
2018-08-22T01:38:32.233Z,1.87
2018-08-22T01:41:00.022Z,1.93
2018-08-22T01:43:27.563Z,1.50
2018-08-22T01:45:54.992Z,1.90
2018-08-22T01:48:22.659Z,1.77
2018-08-22T01:50:50.222Z,1.77
2018-08-22T01:53:18.003Z,1.73
2018-08-22T01:55:45.859Z,1.83
2018-08-22T01:58:13.496Z,2.30
2018-08-22T02:00:41.290Z,1.90
2018-08-22T02:03:08.992Z,1.90
2018-08-22T02:05:36.542Z,2.07
2018-08-22T02:08:04.511Z,2.27
2018-08-22T02:10:32.000Z,2.33
2018-08-22T02:12:59.567Z,2.30
2018-08-22T02:15:27.598Z,2.17
2018-08-22T02:17:55.140Z,2.00
2018-08-22T02:20:22.736Z,1.80
2018-08-22T02:22:50.487Z,2.20
2018-08-22T02:25:18.121Z,2.10
2018-08-22T02:27:45.685Z,2.23
2018-08-22T02:30:13.299Z,1.80
2018-08-22T02:32:40.836Z,1.60
2018-08-22T02:35:08.361Z,1.70
2018-08-22T02:37:36.045Z,1.20
2018-08-22T02:40:03.759Z,1.37
2018-08-22T02:42:31.364Z,1.40
2018-08-22T02:44:59.200Z,1.10
2018-08-22T02:47:26.785Z,1.47
2018-08-22T02:49:54.405Z,1.20
2018-08-22T02:52:22.415Z,1.23
2018-08-22T02:54:49.980Z,1.33
2018-08-22T02:57:17.564Z,1.13
2018-08-22T02:59:45.377Z,0.87
2018-08-22T03:02:12.939Z,0.93
2018-08-22T03:04:40.517Z,0.97
2018-08-22T03:07:08.320Z,1.30
2018-08-22T03:09:35.903Z,1.13
2018-08-22T03:12:03.408Z,1.60
2018-08-22T03:14:31.168Z,1.30
2018-08-22T03:16:58.724Z,1.53
2018-08-22T03:19:26.257Z,1.20
2018-08-22T03:21:53.931Z,1.50
2018-08-22T03:24:21.508Z,1.80
2018-08-22T03:26:50.116Z,1.60
2018-08-22T03:29:17.747Z,1.63
2018-08-22T03:31:45.488Z,1.27
2018-08-22T03:34:13.088Z,1.40
2018-08-22T03:36:41.081Z,1.50
2018-08-22T03:39:09.111Z,1.30
2018-08-22T03:41:36.667Z,1.20
2018-08-22T03:44:04.413Z,1.30
2018-08-22T03:46:31.969Z,1.30
2018-08-22T03:48:59.528Z,1.23
2018-08-22T03:51:27.300Z,1.50
2018-08-22T03:53:54.925Z,1.50
2018-08-22T03:56:22.455Z,1.03
2018-08-22T03:58:50.348Z,1.33
2018-08-22T04:01:17.879Z,1.40
2018-08-22T04:03:45.395Z,1.13
2018-08-22T04:06:12.976Z,1.30
2018-08-22T04:08:40.540Z,1.30
2018-08-22T04:11:08.095Z,1.27
2018-08-22T04:13:36.519Z,1.20
2018-08-22T04:16:04.178Z,1.37
2018-08-22T04:18:31.843Z,1.13
2018-08-22T04:20:59.560Z,1.50
2018-08-22T04:23:27.133Z,0.90
2018-08-22T04:25:54.656Z,1.23
2018-08-22T04:28:22.339Z,1.27
2018-08-22T04:30:49.887Z,1.30
2018-08-22T04:33:17.640Z,1.27
2018-08-22T04:35:45.199Z,1.30
2018-08-22T04:38:12.765Z,1.30
2018-08-22T04:40:40.578Z,1.50
2018-08-22T04:43:08.234Z,1.10
2018-08-22T04:45:35.803Z,1.40
2018-08-22T04:48:03.579Z,1.63
2018-08-22T04:50:31.136Z,1.30
2018-08-22T04:52:58.955Z,1.80
2018-08-22T04:55:26.913Z,1.30
2018-08-22T04:57:54.578Z,1.47
2018-08-22T05:00:22.151Z,1.13
2018-08-22T05:02:49.831Z,1.03
2018-08-22T05:05:17.368Z,1.20
2018-08-22T05:07:44.908Z,1.20
2018-08-22T05:10:12.855Z,1.07
2018-08-22T05:12:40.481Z,1.27
2018-08-22T05:15:08.021Z,1.33
2018-08-22T05:17:35.911Z,1.20
2018-08-22T05:20:03.489Z,1.30
2018-08-22T05:22:31.067Z,1.20
2018-08-22T05:24:58.905Z,1.23
2018-08-22T05:27:26.452Z,1.23
2018-08-22T05:29:54.027Z,1.27
2018-08-22T05:32:21.557Z,1.10
2018-08-22T05:34:56.755Z,1.20
2018-08-22T05:37:24.578Z,1.33
2018-08-22T05:39:52.179Z,1.33
2018-08-22T05:42:20.074Z,0.97
2018-08-22T05:44:51.312Z,1.27
2018-08-22T05:47:18.842Z,1.47
2018-08-22T05:49:46.500Z,1.13
2018-08-22T05:52:23.386Z,1.17
2018-08-22T05:54:51.019Z,1.40
2018-08-22T05:57:18.584Z,1.20
2018-08-22T05:59:46.078Z,1.60
2018-08-22T06:02:13.759Z,1.47
2018-08-22T06:04:41.308Z,1.13
2018-08-22T06:07:09.039Z,1.40
2018-08-22T06:09:36.868Z,1.70
2018-08-22T06:12:04.415Z,1.50
2018-08-22T06:14:32.058Z,1.57
2018-08-22T06:16:59.759Z,1.10
2018-08-22T06:19:27.337Z,1.17
2018-08-22T06:21:54.894Z,1.30
2018-08-22T06:24:22.813Z,1.10
2018-08-22T06:26:50.354Z,1.23
2018-08-22T06:29:18.097Z,1.30
2018-08-22T06:31:45.656Z,1.20
2018-08-22T06:34:13.227Z,0.90
2018-08-22T06:36:41.045Z,1.20
2018-08-22T06:39:09.561Z,0.87
2018-08-22T06:41:37.240Z,1.20
2018-08-22T06:44:05.283Z,1.03
2018-08-22T06:46:32.809Z,1.30
2018-08-22T06:49:00.368Z,1.20
2018-08-22T06:51:28.112Z,1.30
2018-08-22T06:53:55.651Z,1.27
2018-08-22T06:56:23.200Z,1.10
2018-08-22T06:58:51.012Z,1.43
2018-08-22T07:01:18.559Z,1.40
2018-08-22T07:03:46.108Z,1.20
2018-08-22T07:06:14.169Z,1.40
2018-08-22T07:08:41.724Z,1.33
2018-08-22T07:11:09.264Z,1.40
2018-08-22T07:13:37.047Z,1.30
2018-08-22T07:16:04.589Z,1.00
2018-08-22T07:18:32.205Z,1.17
2018-08-22T07:21:00.456Z,1.20
2018-08-22T07:23:28.411Z,1.00
2018-08-22T07:25:55.990Z,1.00
2018-08-22T07:28:23.756Z,0.90
2018-08-22T07:30:51.394Z,1.00
2018-08-22T07:33:19.308Z,0.90
2018-08-22T07:35:46.986Z,0.90
2018-08-22T07:38:14.480Z,0.90
2018-08-22T07:40:42.036Z,0.80
2018-08-22T07:43:09.621Z,0.70
2018-08-22T07:45:37.141Z,0.73
2018-08-22T07:48:05.049Z,1.07
2018-08-22T07:50:33.119Z,0.90
2018-08-22T07:53:04.798Z,1.03
2018-08-22T07:55:37.182Z,0.90
2018-08-22T07:58:04.978Z,0.87
2018-08-22T08:00:32.600Z,0.87
2018-08-22T08:03:00.473Z,0.83
2018-08-22T08:05:28.056Z,1.17
2018-08-22T08:07:55.540Z,0.90
2018-08-22T08:10:28.963Z,0.90
2018-08-22T08:12:56.488Z,0.80
2018-08-22T08:15:24.048Z,1.10
2018-08-22T08:17:51.828Z,1.00
2018-08-22T08:20:23.484Z,0.80
2018-08-22T08:22:51.015Z,0.90
2018-08-22T08:25:33.689Z,0.90
2018-08-22T08:28:11.253Z,0.90
2018-08-22T08:30:46.916Z,0.70
2018-08-22T08:33:14.442Z,0.70
2018-08-22T08:35:41.972Z,0.90
2018-08-22T08:38:11.021Z,0.90
2018-08-22T08:40:38.684Z,1.07
2018-08-22T08:43:06.236Z,0.90
2018-08-22T08:45:34.031Z,0.93
2018-08-22T08:48:01.555Z,1.10
2018-08-22T08:50:29.143Z,1.23
2018-08-22T08:52:57.256Z,1.27
2018-08-22T08:55:24.763Z,1.10
2018-08-22T08:57:52.279Z,1.13
2018-08-22T09:00:20.052Z,1.00
2018-08-22T09:02:48.026Z,1.17
2018-08-22T09:05:15.599Z,1.40
2018-08-22T09:07:43.024Z,1.17
2018-08-22T09:10:10.821Z,1.40
2018-08-22T09:12:38.352Z,1.40
2018-08-22T09:15:06.613Z,1.43
2018-08-22T09:17:34.652Z,1.43
2018-08-22T09:20:02.217Z,1.50
2018-08-22T09:22:29.818Z,1.70
2018-08-22T09:24:57.892Z,1.40
2018-08-22T09:27:25.457Z,1.50
2018-08-22T09:29:53.394Z,1.60
2018-08-22T09:32:20.935Z,1.20
2018-08-22T09:34:48.457Z,1.50
2018-08-22T09:37:16.596Z,1.40
2018-08-22T09:39:44.208Z,1.43
2018-08-22T09:42:11.743Z,1.33
2018-08-22T09:44:39.392Z,1.47
2018-08-22T09:47:06.912Z,1.30
2018-08-22T09:49:34.433Z,1.30
2018-08-22T09:52:02.483Z,1.33
2018-08-22T09:54:31.057Z,1.20
2018-08-22T09:56:58.632Z,1.50
2018-08-22T09:59:26.428Z,1.53
2018-08-22T10:01:53.981Z,1.60
2018-08-22T10:04:21.558Z,1.30
2018-08-22T10:06:50.251Z,1.50
2018-08-22T10:09:20.219Z,1.40
2018-08-22T10:11:47.812Z,1.67
2018-08-22T10:14:15.490Z,1.43
2018-08-22T10:16:43.050Z,1.50
2018-08-22T10:19:10.604Z,1.37
2018-08-22T10:21:38.327Z,1.40
2018-08-22T10:24:05.956Z,1.60
2018-08-22T10:26:34.011Z,1.50
2018-08-22T10:29:01.679Z,1.43
2018-08-22T10:31:29.304Z,1.57
2018-08-22T10:33:57.159Z,1.90
2018-08-22T10:36:24.960Z,1.50
2018-08-22T10:38:52.651Z,1.67
2018-08-22T10:41:20.242Z,1.50
2018-08-22T10:43:48.140Z,1.50
2018-08-22T10:46:15.729Z,1.63
2018-08-22T10:48:43.355Z,1.90
2018-08-22T10:51:11.359Z,1.53
2018-08-22T10:53:38.930Z,1.77
2018-08-22T10:56:06.503Z,1.80
2018-08-22T10:58:34.321Z,1.50
2018-08-22T11:01:02.005Z,1.70
2018-08-22T11:03:29.744Z,1.63
2018-08-22T11:05:57.732Z,1.53
2018-08-22T11:08:25.343Z,1.83
2018-08-22T11:10:52.915Z,1.83
2018-08-22T11:13:20.972Z,1.60
2018-08-22T11:15:48.688Z,1.90
2018-08-22T11:18:16.189Z,1.73
2018-08-22T11:20:45.526Z,1.60
2018-08-22T11:23:31.245Z,1.77
2018-08-22T11:26:16.708Z,1.67
2018-08-22T11:29:01.958Z,1.60
2018-08-22T11:31:41.128Z,1.73
2018-08-22T11:34:26.341Z,1.70
2018-08-22T11:37:02.956Z,1.47
2018-08-22T11:39:30.901Z,1.77
2018-08-22T11:41:58.525Z,1.57
2018-08-22T11:44:26.103Z,2.00
2018-08-22T11:46:53.662Z,1.53
2018-08-22T11:49:21.326Z,1.80
2018-08-22T11:51:48.958Z,1.70
2018-08-22T11:54:16.500Z,2.17
2018-08-22T11:56:44.419Z,1.40
2018-08-22T11:59:12.007Z,1.63
2018-08-22T12:01:40.504Z,1.50
2018-08-22T12:04:08.905Z,1.90
2018-08-22T12:06:36.509Z,1.77
2018-08-22T12:09:07.122Z,1.83
2018-08-22T12:11:34.927Z,1.87
2018-08-22T12:14:03.033Z,2.10
2018-08-22T12:16:30.676Z,1.70
2018-08-22T12:18:58.520Z,1.80
2018-08-22T12:21:26.092Z,1.97
2018-08-22T12:23:53.968Z,1.90
2018-08-22T12:26:21.529Z,1.80
2018-08-22T12:28:49.042Z,2.00
2018-08-22T12:31:17.074Z,1.67
2018-08-22T12:33:44.648Z,1.80
2018-08-22T12:36:12.368Z,1.83
2018-08-22T12:38:40.278Z,1.73
2018-08-22T12:41:08.053Z,1.77
2018-08-22T12:43:35.592Z,1.70
2018-08-22T12:46:03.481Z,1.70
2018-08-22T12:48:31.040Z,1.97
2018-08-22T12:50:58.678Z,1.80
2018-08-22T12:53:26.726Z,1.90
2018-08-22T12:55:54.220Z,1.80
2018-08-22T12:58:22.182Z,1.77
2018-08-22T13:00:49.775Z,1.80
2018-08-22T13:03:17.304Z,1.77
2018-08-22T13:05:45.016Z,1.60
2018-08-22T13:08:12.536Z,1.73
2018-08-22T13:10:40.096Z,1.73
2018-08-22T13:13:07.826Z,1.93
2018-08-22T13:15:36.191Z,1.63
2018-08-22T13:18:03.999Z,1.57
2018-08-22T13:20:31.543Z,1.80
2018-08-22T13:22:59.405Z,2.00
2018-08-22T13:25:27.000Z,1.63
2018-08-22T13:27:54.614Z,2.03
2018-08-22T13:30:22.447Z,1.67
2018-08-22T13:32:50.044Z,1.63
2018-08-22T13:35:17.612Z,1.90
2018-08-22T13:37:45.421Z,2.00
2018-08-22T13:40:13.016Z,1.50
2018-08-22T13:42:40.802Z,1.70
2018-08-22T13:45:08.665Z,1.87
2018-08-22T13:47:36.209Z,1.70
2018-08-22T13:50:04.105Z,2.20
2018-08-22T13:52:31.659Z,1.77
2018-08-22T13:54:59.332Z,1.83
2018-08-22T13:57:26.915Z,1.70
2018-08-22T13:59:54.497Z,1.83
2018-08-22T14:02:22.091Z,1.53
2018-08-22T14:04:49.712Z,1.80
2018-08-22T14:07:17.315Z,1.93
2018-08-22T14:09:44.942Z,1.63
2018-08-22T14:12:12.642Z,1.70
2018-08-22T14:14:40.278Z,1.70
2018-08-22T14:17:09.028Z,1.60
2018-08-22T14:19:36.884Z,1.70
2018-08-22T14:22:04.552Z,1.80
2018-08-22T14:24:32.454Z,1.80
2018-08-22T14:26:59.995Z,1.70
2018-08-22T14:29:27.583Z,1.47
2018-08-22T14:31:55.289Z,1.90
2018-08-22T14:34:22.929Z,1.67
2018-08-22T14:36:50.481Z,1.80
2018-08-22T14:39:18.411Z,1.80
2018-08-22T14:41:46.212Z,1.60
2018-08-22T14:44:13.775Z,1.80
2018-08-22T14:46:41.344Z,1.53
2018-08-22T14:49:09.024Z,1.70
2018-08-22T14:51:36.561Z,1.57
2018-08-22T14:54:04.076Z,1.50
2018-08-22T14:56:31.745Z,1.53
2018-08-22T14:58:59.272Z,1.80
2018-08-22T15:01:26.844Z,1.50
2018-08-22T15:03:54.688Z,1.70
2018-08-22T15:06:22.325Z,1.70
2018-08-22T15:08:55.671Z,1.60
2018-08-22T15:11:23.224Z,1.67
2018-08-22T15:13:50.792Z,1.87
2018-08-22T15:16:18.413Z,1.43
2018-08-22T15:18:45.704Z,1.63
2018-08-22T15:21:13.267Z,1.43
2018-08-22T15:23:41.271Z,1.60
2018-08-22T15:26:08.829Z,1.53
2018-08-22T15:28:36.404Z,1.73
2018-08-22T15:31:04.268Z,1.70
2018-08-22T15:33:31.827Z,1.70
2018-08-22T15:35:59.412Z,1.57
2018-08-22T15:38:27.428Z,1.37
2018-08-22T15:40:55.082Z,1.43
2018-08-22T15:43:22.612Z,1.53
2018-08-22T15:45:50.452Z,1.23
2018-08-22T15:48:18.057Z,1.50
2018-08-22T15:50:48.933Z,1.63
2018-08-22T15:53:16.839Z,1.53
2018-08-22T15:55:44.288Z,1.40
2018-08-22T15:58:12.281Z,1.60
2018-08-22T16:00:44.703Z,1.30
2018-08-22T16:03:12.559Z,1.57
2018-08-22T16:05:41.158Z,1.50
2018-08-22T16:08:09.669Z,1.67
2018-08-22T16:10:37.348Z,1.60
2018-08-22T16:13:08.169Z,1.57
2018-08-22T16:15:36.736Z,1.33
2018-08-22T16:18:07.962Z,1.57
2018-08-22T16:20:44.431Z,1.63
2018-08-22T16:23:12.062Z,1.50
2018-08-22T16:25:42.389Z,1.60
2018-08-22T16:28:10.393Z,1.70
2018-08-22T16:30:37.988Z,1.37
2018-08-22T16:33:05.524Z,1.50
2018-08-22T16:35:33.278Z,1.60
2018-08-22T16:38:02.768Z,1.63
2018-08-22T16:40:35.158Z,1.43
2018-08-22T16:43:03.016Z,1.60
2018-08-22T16:45:31.292Z,1.47
2018-08-22T16:47:59.231Z,1.60
2018-08-22T16:50:26.768Z,1.73
2018-08-22T16:52:54.328Z,1.40
2018-08-22T16:55:23.328Z,1.37
2018-08-22T16:57:51.448Z,1.47
2018-08-22T17:00:35.999Z,1.50
2018-08-22T17:03:05.191Z,1.40
2018-08-22T17:05:33.069Z,1.57
2018-08-22T17:08:00.876Z,1.63
2018-08-22T17:11:02.876Z,1.60
2018-08-22T17:13:49.542Z,1.43
2018-08-22T17:16:17.372Z,1.43
2018-08-22T17:18:45.654Z,1.40
2018-08-22T17:21:13.205Z,1.60
2018-08-22T17:23:41.331Z,1.40
2018-08-22T17:26:13.977Z,1.57
2018-08-22T17:28:44.393Z,1.73
2018-08-22T17:31:12.576Z,1.40
2018-08-22T17:33:43.580Z,1.30
2018-08-22T17:36:11.889Z,1.70
2018-08-22T17:38:43.176Z,1.17
2018-08-22T17:41:11.021Z,1.37
2018-08-22T17:44:13.204Z,1.83
2018-08-22T17:46:42.767Z,1.60
2018-08-22T17:49:10.366Z,1.97
2018-08-22T17:52:11.347Z,1.47
2018-08-22T17:54:38.926Z,1.70
2018-08-22T17:57:21.606Z,1.53
2018-08-22T17:59:49.178Z,1.60
2018-08-22T18:02:16.724Z,1.50
2018-08-22T18:04:59.000Z,1.47
2018-08-22T18:07:26.580Z,1.40
2018-08-22T18:09:54.134Z,1.57
2018-08-22T18:12:25.838Z,2.00
2018-08-22T18:14:57.506Z,1.83
2018-08-22T18:17:25.097Z,2.17
2018-08-22T18:19:52.932Z,2.00
2018-08-22T18:22:20.506Z,1.80
2018-08-22T18:24:54.012Z,2.33
2018-08-22T18:27:25.634Z,1.80
2018-08-22T18:29:53.166Z,2.40
2018-08-22T18:32:20.849Z,2.37
2018-08-22T18:35:03.656Z,2.37
2018-08-22T18:37:32.171Z,2.23
2018-08-22T18:40:17.988Z,2.23
2018-08-22T18:42:50.804Z,2.03
2018-08-22T18:45:19.032Z,2.60
2018-08-22T18:47:46.731Z,3.30
2018-08-22T18:50:14.660Z,2.90
2018-08-22T18:52:46.295Z,2.87
2018-08-22T18:55:13.855Z,3.20
2018-08-22T18:57:42.231Z,2.73
2018-08-22T19:00:09.798Z,3.50
2018-08-22T19:02:37.719Z,2.60
2018-08-22T19:05:25.964Z,2.87
2018-08-22T19:08:01.256Z,2.40
2018-08-22T19:10:30.219Z,2.43
2018-08-22T19:13:04.200Z,2.73
2018-08-22T19:15:31.868Z,2.30
2018-08-22T19:17:59.813Z,2.40
2018-08-22T19:20:27.548Z,2.43
2018-08-22T19:22:55.279Z,2.50
2018-08-22T19:25:22.945Z,2.23
2018-08-22T19:27:50.907Z,2.23
2018-08-22T19:30:18.483Z,2.30
2018-08-22T19:32:47.515Z,2.27
2018-08-22T19:35:15.089Z,2.03
2018-08-22T19:37:47.161Z,1.70
2018-08-22T19:40:14.711Z,1.97
2018-08-22T19:42:42.290Z,2.03
2018-08-22T19:45:10.337Z,2.10
2018-08-22T19:47:39.107Z,2.10
2018-08-22T19:50:07.348Z,2.10
2018-08-22T19:52:35.023Z,1.93
2018-08-22T19:55:04.762Z,2.27
2018-08-22T19:57:35.558Z,2.17
2018-08-22T20:00:05.185Z,1.90
2018-08-22T20:02:33.655Z,2.10
2018-08-22T20:05:01.692Z,1.97
2018-08-22T20:07:29.286Z,2.27
2018-08-22T20:09:57.012Z,2.33
2018-08-22T20:12:40.511Z,2.33
2018-08-22T20:15:08.307Z,2.33
2018-08-22T20:17:35.981Z,2.13
2018-08-22T20:20:04.123Z,2.03
2018-08-22T20:22:37.641Z,2.60
2018-08-22T20:25:06.950Z,2.30
2018-08-22T20:27:34.789Z,2.30
2018-08-22T20:30:08.238Z,2.47
2018-08-22T20:32:35.874Z,2.70
2018-08-22T20:35:03.719Z,2.10
2018-08-22T20:37:32.159Z,2.93
2018-08-22T20:40:04.901Z,2.37
2018-08-22T20:42:32.834Z,2.50
2018-08-22T20:45:00.490Z,2.37
2018-08-22T20:47:28.155Z,1.87
2018-08-22T20:49:56.361Z,2.50
2018-08-22T20:52:25.833Z,2.37
2018-08-22T20:54:59.645Z,2.70
2018-08-22T20:57:27.300Z,2.43
2018-08-22T20:59:54.993Z,2.50
2018-08-22T21:02:22.780Z,2.37
2018-08-22T21:04:50.411Z,2.57
2018-08-22T21:07:28.285Z,2.80
2018-08-22T21:09:55.969Z,2.20
2018-08-22T21:12:23.563Z,2.67
2018-08-22T21:14:51.779Z,2.53
2018-08-22T21:17:19.339Z,2.50
2018-08-22T21:19:46.917Z,2.67
2018-08-22T21:22:26.334Z,2.67
2018-08-22T21:24:55.340Z,2.67
2018-08-22T21:27:22.914Z,2.50
2018-08-22T21:29:50.976Z,2.43
2018-08-22T21:32:18.692Z,2.73
2018-08-22T21:34:46.426Z,2.57
2018-08-22T21:37:23.624Z,2.53
2018-08-22T21:39:51.458Z,2.47
2018-08-22T21:42:36.081Z,2.50
2018-08-22T21:45:03.773Z,2.33
2018-08-22T21:47:31.453Z,3.00
2018-08-22T21:49:59.078Z,2.50
2018-08-22T21:52:36.188Z,2.30
2018-08-22T21:55:04.183Z,2.77
2018-08-22T21:57:31.741Z,2.80
2018-08-22T22:00:08.453Z,3.20
2018-08-22T22:02:42.071Z,3.30
2018-08-22T22:05:09.986Z,3.27
2018-08-22T22:07:37.519Z,3.30
2018-08-22T22:10:10.285Z,2.90
2018-08-22T22:12:39.290Z,3.33
2018-08-22T22:15:07.671Z,2.83
2018-08-22T22:17:35.560Z,3.20
2018-08-22T22:20:03.194Z,3.20
2018-08-22T22:22:30.985Z,3.17
2018-08-22T22:25:02.854Z,2.77
2018-08-22T22:27:31.554Z,2.70
2018-08-22T22:30:03.504Z,2.90
2018-08-22T22:32:32.214Z,2.77
2018-08-22T22:35:01.532Z,2.73
2018-08-22T22:37:32.473Z,3.00
2018-08-22T22:40:00.087Z,2.83
2018-08-22T22:42:28.460Z,3.27
2018-08-22T22:44:57.386Z,2.70
2018-08-22T22:47:25.893Z,2.73
2018-08-22T22:49:54.108Z,2.93
2018-08-22T22:52:34.514Z,2.87
2018-08-22T22:55:03.547Z,2.60
2018-08-22T22:57:33.099Z,2.70
2018-08-22T23:00:01.419Z,3.00
2018-08-22T23:02:29.749Z,2.90
2018-08-22T23:04:59.636Z,3.07
2018-08-22T23:07:29.001Z,2.47
2018-08-22T23:09:57.910Z,3.00
2018-08-22T23:12:31.254Z,2.90
2018-08-22T23:14:59.219Z,3.37
2018-08-22T23:17:26.972Z,2.80
2018-08-22T23:20:24.687Z,3.10
2018-08-22T23:22:52.610Z,2.70
2018-08-22T23:25:20.470Z,2.53
2018-08-22T23:27:48.134Z,3.00
2018-08-22T23:30:17.064Z,2.40
2018-08-22T23:32:44.651Z,2.27
2018-08-22T23:35:23.402Z,2.50
2018-08-22T23:37:54.103Z,2.67
2018-08-22T23:40:23.045Z,2.77
2018-08-22T23:42:57.516Z,3.00
2018-08-22T23:45:25.139Z,2.70
2018-08-22T23:48:22.084Z,2.50
2018-08-22T23:51:16.445Z,2.57
2018-08-22T23:53:45.392Z,2.60
2018-08-22T23:56:51.706Z,2.50
2018-08-22T23:59:57.150Z,2.73
